메인 페이지
METAR-TAF:

METAR-TAF

공항 :

이스탄불 이스탄불, 터키

아타튀르크 국제공항

위도: 40-58N, 경도: 028-49E, 고도: 48m

현재 날씨관측

예보는 32분 전, 13:20시(UTC)에 발표되었습니다.
북동14kt풍과 동북동풍을 오가는
온도 9°C
습도 57%
기압 1018 hPa
시정 10km 이상
고도 2500ft 상공 구름 많음

METAR: LTBA 191320Z 04014KT 360V070 9999 BKN025 09/01 Q1018 NOSIG RMK RWY17L 04012KT 010V070 RWY05 02016KT RWY23 05014KT

시각: 16:52 (13:52 UTC)

예보

예보는 3 시간 12분 전, 10:40시(UTC)에 발표되었습니다.
예보 대상 시간: 19일 12시부터 20일 18시까지 (UTC)
북동15kt, 순간 최대 풍속 26kt
시정 10km 이상
고도 2500ft 상공 구름 보통
고도 10000ft 상공 구름 많음
전환 중
19일 12시부터 19일 15시까지 (UTC)
고도 2000ft 상공 구름 많음
전환 중
19일 19시부터 19일 22시까지 (UTC)
고도 1500ft 상공 구름 보통
고도 3000ft 상공 구름 많음
확률 30%
19일 22시부터 20일 02시까지 (UTC)
고도 1200ft 상공 구름 많음
고도 2500ft 상공 구름 많음
약한이슬비
전환 중
19일 22시부터 20일 02시까지 (UTC)
동북동12kt
일시적
20일 12시부터 20일 16시까지 (UTC)
북북동15kt, 순간 최대 풍속 27kt
약한비

TAF: LTBA 191040Z 1912/2018 05015G26KT 9999 SCT025 BKN100 BECMG 1912/1915 BKN020 BECMG 1919/1922 SCT015 BKN030 PROB30 1922/2002 -DZ BKN012 BKN025 BECMG 1922/2002 06012KT TEMPO 2012/2016 03015G27KT -RA

4,000개 이상의 공항 관측 자료 및 예보 (METAR 및 TAF 보고).

지도상에서 검색 가능한 기상관측소가 노란 점과 빨간 점으로 표시되어 있습니다.

기상관측소 명을 보려면 표시 위로 마우스를 이동하세요.

날씨 관측과 예보를 보려면 클릭하세요.

지도 변경 : 확대하려면 엑스 표시가 있는 녹색 버튼, 축소하려면 빼기 표시가 있는 녹색 버튼, 다음 페이지의 지도를 보려면 녹색 화살표를 클릭하세요.


METAR-TAF: